sensor_id;sensor_type;location;lat;lon;timestamp;pressure;altitude;pressure_sealevel;temperature;humidity
62103;BME280;48077;48.104;11.702;2022-11-14T00:00:53;95543.03;;;1.88;100.00
62103;BME280;48077;48.104;11.702;2022-11-14T00:03:17;95541.53;;;1.94;100.00
62103;BME280;48077;48.104;11.702;2022-11-14T00:05:42;95543.69;;;1.90;100.00
62103;BME280;48077;48.104;11.702;2022-11-14T00:08:08;95546.94;;;1.92;100.00
62103;BME280;48077;48.104;11.702;2022-11-14T00:10:35;95543.50;;;1.92;100.00
62103;BME280;48077;48.104;11.702;2022-11-14T00:12:59;95538.41;;;1.90;100.00
62103;BME280;48077;48.104;11.702;2022-11-14T00:15:22;95531.72;;;1.88;100.00
62103;BME280;48077;48.104;11.702;2022-11-14T00:17:46;95535.97;;;1.89;100.00
62103;BME280;48077;48.104;11.702;2022-11-14T00:20:10;95520.06;;;1.82;100.00
62103;BME280;48077;48.104;11.702;2022-11-14T00:22:34;95523.44;;;1.91;100.00
62103;BME280;48077;48.104;11.702;2022-11-14T00:24:57;95524.00;;;1.86;100.00
62103;BME280;48077;48.104;11.702;2022-11-14T00:27:21;95526.31;;;1.81;100.00
62103;BME280;48077;48.104;11.702;2022-11-14T00:29:44;95534.03;;;1.82;100.00
62103;BME280;48077;48.104;11.702;2022-11-14T00:32:07;95529.41;;;1.85;100.00
62103;BME280;48077;48.104;11.702;2022-11-14T00:34:31;95535.31;;;1.87;100.00
62103;BME280;48077;48.104;11.702;2022-11-14T00:36:54;95546.47;;;1.89;100.00
62103;BME280;48077;48.104;11.702;2022-11-14T00:39:17;95543.09;;;1.80;100.00
62103;BME280;48077;48.104;11.702;2022-11-14T00:41:41;95553.09;;;1.85;100.00
62103;BME280;48077;48.104;11.702;2022-11-14T00:44:04;95557.53;;;1.84;100.00
62103;BME280;48077;48.104;11.702;2022-11-14T00:46:28;95550.53;;;1.76;100.00
62103;BME280;48077;48.104;11.702;2022-11-14T00:48:51;95557.44;;;1.77;100.00
62103;BME280;48077;48.104;11.702;2022-11-14T00:51:14;95558.59;;;1.75;100.00
62103;BME280;48077;48.104;11.702;2022-11-14T00:53:38;95541.06;;;1.67;100.00
62103;BME280;48077;48.104;11.702;2022-11-14T00:56:02;95522.56;;;1.60;100.00
62103;BME280;48077;48.104;11.702;2022-11-14T00:58:26;95507.72;;;1.45;100.00
62103;BME280;48077;48.104;11.702;2022-11-14T01:00:50;95524.72;;;1.57;100.00
62103;BME280;48077;48.104;11.702;2022-11-14T01:03:14;95514.72;;;1.52;100.00
62103;BME280;48077;48.104;11.702;2022-11-14T01:05:45;95530.25;;;1.62;100.00
62103;BME280;48077;48.104;11.702;2022-11-14T01:08:09;95534.69;;;1.61;100.00
62103;BME280;48077;48.104;11.702;2022-11-14T01:10:33;95541.78;;;1.61;100.00
62103;BME280;48077;48.104;11.702;2022-11-14T01:12:56;95534.75;;;1.53;100.00
62103;BME280;48077;48.104;11.702;2022-11-14T01:15:19;95543.41;;;1.62;100.00
62103;BME280;48077;48.104;11.702;2022-11-14T01:17:43;95528.84;;;1.51;100.00
62103;BME280;48077;48.104;11.702;2022-11-14T01:20:06;95533.59;;;1.56;100.00
62103;BME280;48077;48.104;11.702;2022-11-14T01:22:30;95541.31;;;1.57;100.00
62103;BME280;48077;48.104;11.702;2022-11-14T01:24:53;95538.19;;;1.54;100.00
62103;BME280;48077;48.104;11.702;2022-11-14T01:27:17;95531.00;;;1.48;100.00
62103;BME280;48077;48.104;11.702;2022-11-14T01:29:40;95533.31;;;1.51;100.00
62103;BME280;48077;48.104;11.702;2022-11-14T01:32:04;95537.56;;;1.52;100.00
62103;BME280;48077;48.104;11.702;2022-11-14T01:34:27;95532.88;;;1.39;100.00
62103;BME280;48077;48.104;11.702;2022-11-14T01:36:51;95526.13;;;1.45;100.00
62103;BME280;48077;48.104;11.702;2022-11-14T01:39:15;95518.22;;;1.45;100.00
62103;BME280;48077;48.104;11.702;2022-11-14T01:41:38;95517.91;;;1.39;100.00
62103;BME280;48077;48.104;11.702;2022-11-14T01:44:01;95523.72;;;1.35;100.00
62103;BME280;48077;48.104;11.702;2022-11-14T01:49:09;95497.84;;;1.24;100.00
62103;BME280;48077;48.104;11.702;2022-11-14T01:52:01;95499.47;;;1.25;100.00
62103;BME280;48077;48.104;11.702;2022-11-14T01:54:28;95504.06;;;1.23;100.00
62103;BME280;48077;48.104;11.702;2022-11-14T01:56:57;95507.34;;;1.25;100.00
62103;BME280;48077;48.104;11.702;2022-11-14T01:59:26;95487.34;;;1.24;100.00
62103;BME280;48077;48.104;11.702;2022-11-14T02:01:51;95494.03;;;1.26;100.00
62103;BME280;48077;48.104;11.702;2022-11-14T02:04:18;95509.00;;;1.26;100.00
62103;BME280;48077;48.104;11.702;2022-11-14T02:06:43;95504.91;;;1.23;100.00
62103;BME280;48077;48.104;11.702;2022-11-14T02:09:07;95507.88;;;1.20;100.00
62103;BME280;48077;48.104;11.702;2022-11-14T02:11:35;95511.63;;;1.26;100.00
62103;BME280;48077;48.104;11.702;2022-11-14T02:14:00;95523.75;;;1.27;100.00
62103;BME280;48077;48.104;11.702;2022-11-14T02:16:25;95535.22;;;1.34;100.00
62103;BME280;48077;48.104;11.702;2022-11-14T02:18:48;95524.50;;;1.35;100.00
62103;BME280;48077;48.104;11.702;2022-11-14T02:21:12;95516.47;;;1.37;100.00
62103;BME280;48077;48.104;11.702;2022-11-14T02:23:35;95503.97;;;1.39;100.00
62103;BME280;48077;48.104;11.702;2022-11-14T02:25:58;95496.91;;;1.39;100.00
62103;BME280;48077;48.104;11.702;2022-11-14T02:28:22;95486.09;;;1.34;100.00
62103;BME280;48077;48.104;11.702;2022-11-14T02:30:45;95490.34;;;1.35;100.00
62103;BME280;48077;48.104;11.702;2022-11-14T02:33:09;95517.28;;;1.37;100.00
62103;BME280;48077;48.104;11.702;2022-11-14T02:35:32;95507.78;;;1.36;100.00
62103;BME280;48077;48.104;11.702;2022-11-14T02:37:55;95521.88;;;1.35;100.00
62103;BME280;48077;48.104;11.702;2022-11-14T02:40:19;95510.41;;;1.36;100.00
62103;BME280;48077;48.104;11.702;2022-11-14T02:42:42;95487.72;;;1.35;100.00
62103;BME280;48077;48.104;11.702;2022-11-14T02:45:06;95487.97;;;1.26;100.00
62103;BME280;48077;48.104;11.702;2022-11-14T02:47:30;95496.66;;;1.26;100.00
62103;BME280;48077;48.104;11.702;2022-11-14T02:49:53;95483.91;;;1.23;100.00
62103;BME280;48077;48.104;11.702;2022-11-14T02:52:16;95474.91;;;1.17;100.00
62103;BME280;48077;48.104;11.702;2022-11-14T02:54:40;95461.28;;;1.14;100.00
62103;BME280;48077;48.104;11.702;2022-11-14T02:57:03;95453.94;;;1.09;100.00
62103;BME280;48077;48.104;11.702;2022-11-14T02:59:26;95447.91;;;1.00;100.00
62103;BME280;48077;48.104;11.702;2022-11-14T03:01:50;95460.03;;;1.01;100.00
62103;BME280;48077;48.104;11.702;2022-11-14T03:04:13;95457.59;;;1.00;100.00
62103;BME280;48077;48.104;11.702;2022-11-14T03:06:36;95474.34;;;0.99;100.00
62103;BME280;48077;48.104;11.702;2022-11-14T03:09:00;95467.28;;;0.99;100.00
62103;BME280;48077;48.104;11.702;2022-11-14T03:11:23;95472.38;;;1.01;100.00
62103;BME280;48077;48.104;11.702;2022-11-14T03:13:46;95468.41;;;1.05;100.00
62103;BME280;48077;48.104;11.702;2022-11-14T03:16:11;95452.81;;;1.04;100.00
62103;BME280;48077;48.104;11.702;2022-11-14T03:18:35;95460.00;;;1.10;100.00
62103;BME280;48077;48.104;11.702;2022-11-14T03:21:10;95454.91;;;1.08;100.00
62103;BME280;48077;48.104;11.702;2022-11-14T03:23:33;95443.00;;;0.97;100.00
62103;BME280;48077;48.104;11.702;2022-11-14T03:26:01;95470.50;;;1.10;100.00
62103;BME280;48077;48.104;11.702;2022-11-14T03:28:24;95463.91;;;1.14;100.00
62103;BME280;48077;48.104;11.702;2022-11-14T03:30:48;95460.09;;;1.16;100.00
62103;BME280;48077;48.104;11.702;2022-11-14T03:33:11;95468.47;;;1.20;100.00
62103;BME280;48077;48.104;11.702;2022-11-14T03:35:34;95467.81;;;1.18;100.00
62103;BME280;48077;48.104;11.702;2022-11-14T03:37:58;95466.38;;;1.15;100.00
62103;BME280;48077;48.104;11.702;2022-11-14T03:40:21;95464.91;;;1.13;100.00
62103;BME280;48077;48.104;11.702;2022-11-14T03:42:44;95477.41;;;1.11;100.00
62103;BME280;48077;48.104;11.702;2022-11-14T03:45:08;95468.25;;;1.07;100.00
62103;BME280;48077;48.104;11.702;2022-11-14T03:47:32;95462.16;;;1.06;100.00
62103;BME280;48077;48.104;11.702;2022-11-14T03:49:55;95483.34;;;1.05;100.00
62103;BME280;48077;48.104;11.702;2022-11-14T03:52:19;95475.34;;;0.98;100.00
62103;BME280;48077;48.104;11.702;2022-11-14T03:54:42;95488.25;;;1.08;100.00
62103;BME280;48077;48.104;11.702;2022-11-14T03:57:05;95481.38;;;1.07;100.00
62103;BME280;48077;48.104;11.702;2022-11-14T03:59:29;95479.66;;;1.14;100.00
62103;BME280;48077;48.104;11.702;2022-11-14T04:01:52;95477.22;;;1.12;100.00
62103;BME280;48077;48.104;11.702;2022-11-14T04:04:15;95484.28;;;1.12;100.00
62103;BME280;48077;48.104;11.702;2022-11-14T04:06:39;95492.31;;;1.10;100.00
62103;BME280;48077;48.104;11.702;2022-11-14T04:09:02;95491.22;;;1.05;100.00
62103;BME280;48077;48.104;11.702;2022-11-14T04:11:26;95483.03;;;0.99;100.00
62103;BME280;48077;48.104;11.702;2022-11-14T04:13:49;95491.59;;;0.93;100.00
62103;BME280;48077;48.104;11.702;2022-11-14T04:16:12;95489.63;;;0.95;100.00
62103;BME280;48077;48.104;11.702;2022-11-14T04:18:36;95483.09;;;0.91;100.00
62103;BME280;48077;48.104;11.702;2022-11-14T04:20:59;95478.22;;;0.80;100.00
62103;BME280;48077;48.104;11.702;2022-11-14T04:23:22;95475.25;;;0.83;100.00
62103;BME280;48077;48.104;11.702;2022-11-14T04:25:46;95460.53;;;0.74;100.00
62103;BME280;48077;48.104;11.702;2022-11-14T04:28:10;95462.16;;;0.75;100.00
62103;BME280;48077;48.104;11.702;2022-11-14T04:30:33;95482.16;;;0.84;100.00
62103;BME280;48077;48.104;11.702;2022-11-14T04:32:57;95478.06;;;0.82;100.00
62103;BME280;48077;48.104;11.702;2022-11-14T04:35:20;95482.16;;;0.84;100.00
62103;BME280;48077;48.104;11.702;2022-11-14T04:37:44;95480.84;;;0.80;100.00
62103;BME280;48077;48.104;11.702;2022-11-14T04:40:08;95477.47;;;0.71;100.00
62103;BME280;48077;48.104;11.702;2022-11-14T04:42:31;95487.28;;;0.77;100.00
62103;BME280;48077;48.104;11.702;2022-11-14T04:44:55;95478.28;;;0.72;100.00
62103;BME280;48077;48.104;11.702;2022-11-14T04:47:18;95498.88;;;0.83;100.00
62103;BME280;48077;48.104;11.702;2022-11-14T04:49:41;95488.13;;;0.70;100.00
62103;BME280;48077;48.104;11.702;2022-11-14T04:52:07;95496.13;;;0.76;100.00
62103;BME280;48077;48.104;11.702;2022-11-14T04:54:30;95479.44;;;0.69;100.00
62103;BME280;48077;48.104;11.702;2022-11-14T04:56:53;95467.19;;;0.53;100.00
62103;BME280;48077;48.104;11.702;2022-11-14T04:59:19;95464.44;;;0.47;100.00
62103;BME280;48077;48.104;11.702;2022-11-14T05:01:43;95463.47;;;0.39;100.00
62103;BME280;48077;48.104;11.702;2022-11-14T05:04:06;95450.41;;;0.31;100.00
62103;BME280;48077;48.104;11.702;2022-11-14T05:06:29;95462.00;;;0.37;100.00
62103;BME280;48077;48.104;11.702;2022-11-14T05:08:53;95455.16;;;0.36;100.00
62103;BME280;48077;48.104;11.702;2022-11-14T05:11:18;95454.66;;;0.32;100.00
62103;BME280;48077;48.104;11.702;2022-11-14T05:13:42;95456.13;;;0.35;100.00
62103;BME280;48077;48.104;11.702;2022-11-14T05:16:06;95432.72;;;0.25;100.00
62103;BME280;48077;48.104;11.702;2022-11-14T05:18:29;95452.31;;;0.37;100.00
62103;BME280;48077;48.104;11.702;2022-11-14T05:20:52;95445.50;;;0.28;100.00
62103;BME280;48077;48.104;11.702;2022-11-14T05:23:21;95455.66;;;0.31;100.00
62103;BME280;48077;48.104;11.702;2022-11-14T05:25:45;95465.97;;;0.33;100.00
62103;BME280;48077;48.104;11.702;2022-11-14T05:28:09;95446.16;;;0.22;100.00
62103;BME280;48077;48.104;11.702;2022-11-14T05:30:32;95460.25;;;0.29;100.00
62103;BME280;48077;48.104;11.702;2022-11-14T05:32:56;95469.75;;;0.30;100.00
62103;BME280;48077;48.104;11.702;2022-11-14T05:35:19;95457.50;;;0.14;100.00
62103;BME280;48077;48.104;11.702;2022-11-14T05:37:42;95489.44;;;0.26;100.00
62103;BME280;48077;48.104;11.702;2022-11-14T05:40:06;95465.56;;;0.13;100.00
62103;BME280;48077;48.104;11.702;2022-11-14T05:42:30;95480.94;;;0.16;100.00
62103;BME280;48077;48.104;11.702;2022-11-14T05:44:53;95490.63;;;0.07;100.00
62103;BME280;48077;48.104;11.702;2022-11-14T05:47:16;95504.41;;;0.01;100.00
62103;BME280;48077;48.104;11.702;2022-11-14T05:49:40;95499.53;;;-0.02;100.00
62103;BME280;48077;48.104;11.702;2022-11-14T05:52:03;95501.63;;;0.03;100.00
62103;BME280;48077;48.104;11.702;2022-11-14T05:54:26;95504.41;;;0.01;100.00
62103;BME280;48077;48.104;11.702;2022-11-14T05:56:50;95496.41;;;-0.06;100.00
62103;BME280;48077;48.104;11.702;2022-11-14T05:59:13;95488.72;;;-0.15;100.00
62103;BME280;48077;48.104;11.702;2022-11-14T06:01:36;95502.81;;;-0.16;100.00
62103;BME280;48077;48.104;11.702;2022-11-14T06:04:00;95509.53;;;-0.14;100.00
62103;BME280;48077;48.104;11.702;2022-11-14T06:06:23;95506.91;;;-0.14;100.00
62103;BME280;48077;48.104;11.702;2022-11-14T06:08:47;95507.41;;;-0.18;100.00
62103;BME280;48077;48.104;11.702;2022-11-14T06:11:13;95518.56;;;-0.25;100.00
62103;BME280;48077;48.104;11.702;2022-11-14T06:13:37;95518.88;;;-0.28;100.00
62103;BME280;48077;48.104;11.702;2022-11-14T06:16:02;95511.50;;;-0.32;100.00
62103;BME280;48077;48.104;11.702;2022-11-14T06:18:25;95520.53;;;-0.35;100.00
62103;BME280;48077;48.104;11.702;2022-11-14T06:20:49;95526.91;;;-0.37;100.00
62103;BME280;48077;48.104;11.702;2022-11-14T06:23:12;95518.06;;;-0.45;100.00
62103;BME280;48077;48.104;11.702;2022-11-14T06:25:35;95519.72;;;-0.44;100.00
62103;BME280;48077;48.104;11.702;2022-11-14T06:27:59;95523.13;;;-0.43;100.00
62103;BME280;48077;48.104;11.702;2022-11-14T06:30:22;95516.25;;;-0.44;100.00
62103;BME280;48077;48.104;11.702;2022-11-14T06:32:45;95522.47;;;-0.37;100.00
62103;BME280;48077;48.104;11.702;2022-11-14T06:35:09;95530.84;;;-0.33;100.00
62103;BME280;48077;48.104;11.702;2022-11-14T06:37:34;95514.13;;;-0.32;100.00
62103;BME280;48077;48.104;11.702;2022-11-14T06:39:58;95505.91;;;-0.29;100.00
62103;BME280;48077;48.104;11.702;2022-11-14T06:42:21;95513.97;;;-0.14;100.00
62103;BME280;48077;48.104;11.702;2022-11-14T06:44:45;95514.25;;;-0.09;100.00
62103;BME280;48077;48.104;11.702;2022-11-14T06:47:08;95515.41;;;-0.04;100.00
62103;BME280;48077;48.104;11.702;2022-11-14T06:49:31;95519.66;;;0.06;100.00
62103;BME280;48077;48.104;11.702;2022-11-14T06:51:55;95512.59;;;0.06;100.00
62103;BME280;48077;48.104;11.702;2022-11-14T06:54:18;95511.78;;;0.06;100.00
62103;BME280;48077;48.104;11.702;2022-11-14T06:56:42;95501.50;;;-0.04;100.00
62103;BME280;48077;48.104;11.702;2022-11-14T06:59:05;95521.47;;;0.05;100.00
62103;BME280;48077;48.104;11.702;2022-11-14T07:01:28;95521.47;;;0.05;100.00
62103;BME280;48077;48.104;11.702;2022-11-14T07:03:52;95499.53;;;-0.02;100.00
62103;BME280;48077;48.104;11.702;2022-11-14T07:06:23;95521.09;;;0.08;100.00
62103;BME280;48077;48.104;11.702;2022-11-14T07:08:47;95516.06;;;0.07;100.00
62103;BME280;48077;48.104;11.702;2022-11-14T07:11:14;95519.34;;;0.09;100.00
62103;BME280;48077;48.104;11.702;2022-11-14T07:13:57;95512.94;;;0.11;100.00
62103;BME280;48077;48.104;11.702;2022-11-14T07:16:28;95516.34;;;0.20;100.00
62103;BME280;48077;48.104;11.702;2022-11-14T07:18:52;95516.19;;;0.22;100.00
62103;BME280;48077;48.104;11.702;2022-11-14T07:21:15;95514.34;;;0.30;100.00
62103;BME280;48077;48.104;11.702;2022-11-14T07:23:39;95502.06;;;0.23;100.00
62103;BME280;48077;48.104;11.702;2022-11-14T07:26:05;95516.31;;;0.28;100.00
62103;BME280;48077;48.104;11.702;2022-11-14T07:28:33;95528.28;;;0.31;100.00
62103;BME280;48077;48.104;11.702;2022-11-14T07:30:56;95509.28;;;0.20;100.00
62103;BME280;48077;48.104;11.702;2022-11-14T07:33:20;95525.84;;;0.29;100.00
62103;BME280;48077;48.104;11.702;2022-11-14T07:35:43;95522.22;;;0.30;100.00
62103;BME280;48077;48.104;11.702;2022-11-14T07:38:06;95517.97;;;0.29;100.00
62103;BME280;48077;48.104;11.702;2022-11-14T07:40:30;95530.88;;;0.39;100.00
62103;BME280;48077;48.104;11.702;2022-11-14T07:42:57;95529.91;;;0.40;100.00
62103;BME280;48077;48.104;11.702;2022-11-14T07:45:21;95526.63;;;0.38;100.00
62103;BME280;48077;48.104;11.702;2022-11-14T07:47:45;95516.78;;;0.40;100.00
62103;BME280;48077;48.104;11.702;2022-11-14T07:50:08;95521.19;;;0.48;100.00
62103;BME280;48077;48.104;11.702;2022-11-14T07:52:32;95512.16;;;0.50;100.00
62103;BME280;48077;48.104;11.702;2022-11-14T07:54:55;95510.34;;;0.51;100.00
62103;BME280;48077;48.104;11.702;2022-11-14T07:57:19;95517.06;;;0.53;100.00
62103;BME280;48077;48.104;11.702;2022-11-14T07:59:42;95518.38;;;0.57;100.00
62103;BME280;48077;48.104;11.702;2022-11-14T08:02:10;95503.25;;;0.59;100.00
62103;BME280;48077;48.104;11.702;2022-11-14T08:04:35;95498.66;;;0.62;100.00
62103;BME280;48077;48.104;11.702;2022-11-14T08:06:58;95490.13;;;0.59;100.00
62103;BME280;48077;48.104;11.702;2022-11-14T08:09:21;95490.63;;;0.63;100.00
62103;BME280;48077;48.104;11.702;2022-11-14T08:11:45;95490.78;;;0.62;100.00
62103;BME280;48077;48.104;11.702;2022-11-14T08:14:11;95491.72;;;0.69;100.00
62103;BME280;48077;48.104;11.702;2022-11-14T08:16:35;95482.06;;;0.69;100.00
62103;BME280;48077;48.104;11.702;2022-11-14T08:18:58;95484.16;;;0.74;100.00
62103;BME280;48077;48.104;11.702;2022-11-14T08:21:22;95480.38;;;0.76;100.00
62103;BME280;48077;48.104;11.702;2022-11-14T08:23:45;95480.38;;;0.76;100.00
62103;BME280;48077;48.104;11.702;2022-11-14T08:26:08;95487.88;;;0.88;100.00
62103;BME280;48077;48.104;11.702;2022-11-14T08:28:32;95489.09;;;1.00;100.00
62103;BME280;48077;48.104;11.702;2022-11-14T08:30:59;95459.88;;;1.03;100.00
62103;BME280;48077;48.104;11.702;2022-11-14T08:33:23;95477.69;;;1.16;100.00
62103;BME280;48077;48.104;11.702;2022-11-14T08:35:47;95485.50;;;1.24;100.00
62103;BME280;48077;48.104;11.702;2022-11-14T08:38:10;95481.53;;;1.28;100.00
62103;BME280;48077;48.104;11.702;2022-11-14T08:40:33;95479.19;;;1.33;100.00
62103;BME280;48077;48.104;11.702;2022-11-14T08:43:00;95470.63;;;1.39;100.00
62103;BME280;48077;48.104;11.702;2022-11-14T08:45:24;95471.19;;;1.50;100.00
62103;BME280;48077;48.104;11.702;2022-11-14T08:47:51;95486.66;;;1.68;100.00
62103;BME280;48077;48.104;11.702;2022-11-14T08:50:15;95475.38;;;1.82;100.00
62103;BME280;48077;48.104;11.702;2022-11-14T08:52:38;95467.22;;;1.92;100.00
62103;BME280;48077;48.104;11.702;2022-11-14T08:55:02;95467.59;;;2.03;100.00
62103;BME280;48077;48.104;11.702;2022-11-14T08:57:25;95442.81;;;1.98;100.00
62103;BME280;48077;48.104;11.702;2022-11-14T08:59:49;95459.34;;;2.21;100.00
62103;BME280;48077;48.104;11.702;2022-11-14T09:02:13;95466.59;;;2.34;100.00
62103;BME280;48077;48.104;11.702;2022-11-14T09:04:36;95448.00;;;2.36;100.00
62103;BME280;48077;48.104;11.702;2022-11-14T09:07:00;95460.44;;;2.57;100.00
62103;BME280;48077;48.104;11.702;2022-11-14T09:09:23;95463.59;;;2.67;100.00
62103;BME280;48077;48.104;11.702;2022-11-14T09:11:46;95451.69;;;2.71;100.00
62103;BME280;48077;48.104;11.702;2022-11-14T09:14:10;95454.22;;;2.79;100.00
62103;BME280;48077;48.104;11.702;2022-11-14T09:16:33;95450.75;;;2.94;100.00
62103;BME280;48077;48.104;11.702;2022-11-14T09:18:57;95439.88;;;3.03;100.00
62103;BME280;48077;48.104;11.702;2022-11-14T09:21:20;95458.22;;;3.33;100.00
62103;BME280;48077;48.104;11.702;2022-11-14T09:23:46;95453.06;;;3.47;100.00
62103;BME280;48077;48.104;11.702;2022-11-14T09:26:09;95456.84;;;3.59;100.00
62103;BME280;48077;48.104;11.702;2022-11-14T09:28:33;95446.34;;;3.65;100.00
62103;BME280;48077;48.104;11.702;2022-11-14T09:31:04;95455.47;;;3.91;100.00
62103;BME280;48077;48.104;11.702;2022-11-14T09:33:28;95460.25;;;4.09;100.00
62103;BME280;48077;48.104;11.702;2022-11-14T09:35:59;95464.22;;;4.26;100.00
62103;BME280;48077;48.104;11.702;2022-11-14T09:38:22;95448.03;;;4.36;100.00
62103;BME280;48077;48.104;11.702;2022-11-14T09:46:01;95466.50;;;5.33;100.00
62103;BME280;48077;48.104;11.702;2022-11-14T09:48:27;95459.41;;;5.53;100.00
62103;BME280;48077;48.104;11.702;2022-11-14T09:53:33;95466.78;;;5.98;100.00
62103;BME280;48077;48.104;11.702;2022-11-14T09:55:58;95465.56;;;6.14;100.00
62103;BME280;48077;48.104;11.702;2022-11-14T09:58:22;95474.50;;;6.33;100.00
62103;BME280;48077;48.104;11.702;2022-11-14T10:01:00;95471.22;;;6.51;100.00
62103;BME280;48077;48.104;11.702;2022-11-14T10:03:32;95482.16;;;6.74;100.00
62103;BME280;48077;48.104;11.702;2022-11-14T10:06:39;95474.31;;;6.99;98.79
62103;BME280;48077;48.104;11.702;2022-11-14T10:09:21;95473.81;;;7.16;98.54
62103;BME280;48077;48.104;11.702;2022-11-14T10:25:17;95461.50;;;8.17;90.13
62103;BME280;48077;48.104;11.702;2022-11-14T10:31:18;95461.16;;;8.57;86.54
62103;BME280;48077;48.104;11.702;2022-11-14T10:34:07;95464.03;;;8.74;84.61
62103;BME280;48077;48.104;11.702;2022-11-14T10:36:54;95456.06;;;8.92;83.29
62103;BME280;48077;48.104;11.702;2022-11-14T10:39:29;95450.13;;;9.08;82.38
62103;BME280;48077;48.104;11.702;2022-11-14T10:41:56;95463.91;;;9.36;81.43
62103;BME280;48077;48.104;11.702;2022-11-14T10:44:27;95461.41;;;9.52;80.41
62103;BME280;48077;48.104;11.702;2022-11-14T10:46:56;95464.03;;;9.71;79.75
62103;BME280;48077;48.104;11.702;2022-11-14T10:49:30;95449.44;;;9.73;78.00
62103;BME280;48077;48.104;11.702;2022-11-14T10:52:01;95465.81;;;10.01;77.48
62103;BME280;48077;48.104;11.702;2022-11-14T10:55:32;95467.00;;;10.17;76.10
62103;BME280;48077;48.104;11.702;2022-11-14T10:57:26;95475.25;;;10.39;75.13
62103;BME280;48077;48.104;11.702;2022-11-14T10:59:51;95485.47;;;10.53;75.43
62103;BME280;48077;48.104;11.702;2022-11-14T11:02:15;95480.00;;;10.60;75.06
62103;BME280;48077;48.104;11.702;2022-11-14T11:04:41;95477.47;;;10.65;74.74
62103;BME280;48077;48.104;11.702;2022-11-14T11:09:31;95478.56;;;11.05;72.50
62103;BME280;48077;48.104;11.702;2022-11-14T11:12:16;95486.53;;;11.17;72.45
62103;BME280;48077;48.104;11.702;2022-11-14T11:14:40;95483.41;;;11.20;72.22
62103;BME280;48077;48.104;11.702;2022-11-14T11:17:14;95482.34;;;11.21;71.10
62103;BME280;48077;48.104;11.702;2022-11-14T11:19:38;95481.75;;;11.19;71.97
62103;BME280;48077;48.104;11.702;2022-11-14T11:22:02;95491.97;;;11.33;70.56
62103;BME280;48077;48.104;11.702;2022-11-14T11:24:33;95479.09;;;11.19;71.70
62103;BME280;48077;48.104;11.702;2022-11-14T11:29:34;95485.78;;;10.92;73.75
62103;BME280;48077;48.104;11.702;2022-11-14T11:31:58;95489.13;;;11.00;73.32
62103;BME280;48077;48.104;11.702;2022-11-14T11:34:28;95493.88;;;11.09;72.57
62103;BME280;48077;48.104;11.702;2022-11-14T11:39:32;95491.97;;;11.22;71.71
62103;BME280;48077;48.104;11.702;2022-11-14T11:42:01;95488.59;;;11.26;70.27
62103;BME280;48077;48.104;11.702;2022-11-14T11:44:41;95494.31;;;11.18;70.50
62103;BME280;48077;48.104;11.702;2022-11-14T11:47:11;95491.13;;;10.81;70.58
62103;BME280;48077;48.104;11.702;2022-11-14T11:49:39;95501.34;;;10.60;73.30
62103;BME280;48077;48.104;11.702;2022-11-14T11:52:17;95502.25;;;10.30;75.45
62103;BME280;48077;48.104;11.702;2022-11-14T11:54:52;95518.56;;;10.10;76.77
62103;BME280;48077;48.104;11.702;2022-11-14T11:57:22;95518.47;;;9.75;77.51
62103;BME280;48077;48.104;11.702;2022-11-14T11:59:50;95510.91;;;9.42;79.31
62103;BME280;48077;48.104;11.702;2022-11-14T12:02:22;95528.44;;;9.31;81.39
62103;BME280;48077;48.104;11.702;2022-11-14T12:04:48;95530.09;;;9.14;82.23
62103;BME280;48077;48.104;11.702;2022-11-14T12:07:18;95519.06;;;8.91;82.40
62103;BME280;48077;48.104;11.702;2022-11-14T12:09:43;95535.09;;;8.85;83.90
62103;BME280;48077;48.104;11.702;2022-11-14T12:12:15;95531.72;;;8.78;83.80
62103;BME280;48077;48.104;11.702;2022-11-14T12:20:36;95520.53;;;8.50;85.99
62103;BME280;48077;48.104;11.702;2022-11-14T12:25:57;95533.94;;;8.56;86.20
62103;BME280;48077;48.104;11.702;2022-11-14T12:31:21;95538.84;;;8.59;85.97
62103;BME280;48077;48.104;11.702;2022-11-14T12:33:50;95549.63;;;8.64;85.19
62103;BME280;48077;48.104;11.702;2022-11-14T12:36:15;95547.94;;;8.69;84.13
62103;BME280;48077;48.104;11.702;2022-11-14T12:38:51;95548.38;;;8.66;84.57
62103;BME280;48077;48.104;11.702;2022-11-14T12:41:31;95543.13;;;8.60;84.77
62103;BME280;48077;48.104;11.702;2022-11-14T12:55:02;95563.50;;;8.66;81.59
62103;BME280;48077;48.104;11.702;2022-11-14T12:57:40;95553.34;;;8.63;82.09
62103;BME280;48077;48.104;11.702;2022-11-14T13:00:11;95560.91;;;8.59;82.35
62103;BME280;48077;48.104;11.702;2022-11-14T13:02:52;95567.56;;;8.50;83.12
62103;BME280;48077;48.104;11.702;2022-11-14T13:05:49;95561.66;;;8.48;83.78
62103;BME280;48077;48.104;11.702;2022-11-14T13:10:54;95564.59;;;8.58;81.72
62103;BME280;48077;48.104;11.702;2022-11-14T13:13:18;95561.91;;;8.65;81.91
62103;BME280;48077;48.104;11.702;2022-11-14T13:16:01;95538.25;;;8.57;81.60
62103;BME280;48077;48.104;11.702;2022-11-14T13:22:19;95559.22;;;8.90;80.24
62103;BME280;48077;48.104;11.702;2022-11-14T13:29:51;95561.22;;;9.13;79.21
62103;BME280;48077;48.104;11.702;2022-11-14T13:35:04;95558.63;;;9.06;78.62
62103;BME280;48077;48.104;11.702;2022-11-14T13:38:05;95559.84;;;9.04;79.15
62103;BME280;48077;48.104;11.702;2022-11-14T13:40:38;95572.81;;;9.00;79.33
62103;BME280;48077;48.104;11.702;2022-11-14T13:43:32;95566.31;;;8.96;79.44
62103;BME280;48077;48.104;11.702;2022-11-14T13:49:20;95555.13;;;8.87;79.51
62103;BME280;48077;48.104;11.702;2022-11-14T13:51:51;95563.34;;;8.86;80.13
62103;BME280;48077;48.104;11.702;2022-11-14T13:54:16;95542.56;;;8.76;80.09
62103;BME280;48077;48.104;11.702;2022-11-14T13:57:07;95547.44;;;8.79;80.33
62103;BME280;48077;48.104;11.702;2022-11-14T13:59:38;95559.03;;;8.85;80.77